Terminal Aerodrome Forecast
Issued by NWS

Home | Current Version | Previous Version | Text Only | Print | Product List | Glossary On
Versions: 1 2 3 4 5 6 7 8 9 10 11 12 13 14 15 16
000
FTUS46 KMFR 231144
TAFOTH
TAF
KOTH 231144Z 2312/2412 16006KT P6SM SCT020 BKN250
     FM231700 19010KT P6SM SCT025 SCT100 BKN250
     FM240300 15004KT P6SM SCT030 BKN100 BKN250=

USA.gov is the U.S. government's official web portal to all federal, state and local government web resources and services.